Terminal Aerodrome Forecast
Issued by NWS Shreveport, LA

Home | Current Version | Previous Version | Text Only | Print | Product List | Glossary On
Versions: 1 2 3 4 5 6 7 8 9 10 11 12 13 14 15 16 17 18 19 20 21
000
FTUS44 KSHV 040500
TAFTXK
TAF
KTXK 040525Z 0406/0506 18005KT 1SM -DZ BR OVC002
      TEMPO 0406/0408 6SM BR SCT020 OVC040
     FM040800 16007KT 3SM BR OVC012
      TEMPO 0410/0414 1SM SHRA BR OVC007
     FM041400 21007KT P6SM VCTS BKN010CB
     FM041700 03012G20KT P6SM -RA OVC005=

USA.gov is the U.S. government's official web portal to all federal, state and local government web resources and services.